createdAt,value
2023-12-18T00:00:47.974Z,0.00
2023-12-18T00:01:47.922Z,0.00
2023-12-18T00:02:47.926Z,0.00
2023-12-18T00:03:48.770Z,0.00
2023-12-18T00:04:47.913Z,0.00
2023-12-18T00:05:47.918Z,0.00
2023-12-18T00:06:47.876Z,0.00
2023-12-18T00:07:47.890Z,0.00
2023-12-18T00:08:47.888Z,0.00
2023-12-18T00:09:47.848Z,0.00
2023-12-18T00:10:47.852Z,0.00
2023-12-18T00:11:47.845Z,0.00
2023-12-18T00:12:47.840Z,0.00
2023-12-18T00:13:47.855Z,0.00
2023-12-18T00:14:47.846Z,0.00
2023-12-18T00:15:47.857Z,0.00
2023-12-18T00:16:47.804Z,0.00
2023-12-18T00:17:48.088Z,0.00
2023-12-18T00:18:47.983Z,0.00
2023-12-18T00:19:47.864Z,0.00
2023-12-18T00:20:47.791Z,0.00
2023-12-18T00:21:47.838Z,0.00
2023-12-18T00:22:47.764Z,0.00
2023-12-18T00:23:47.812Z,0.00
2023-12-18T00:24:47.753Z,0.00
2023-12-18T00:25:47.759Z,0.00
2023-12-18T00:26:47.809Z,0.00
2023-12-18T00:27:48.155Z,0.00
2023-12-18T00:28:47.765Z,0.00
2023-12-18T00:29:47.721Z,0.00
2023-12-18T00:30:47.802Z,0.00
2023-12-18T00:31:47.704Z,0.00
2023-12-18T00:32:47.719Z,0.00
2023-12-18T00:33:47.808Z,0.00
2023-12-18T00:34:47.802Z,0.00
2023-12-18T00:35:47.706Z,0.00
2023-12-18T00:36:47.980Z,0.00
2023-12-18T00:37:47.681Z,0.00
2023-12-18T00:38:47.670Z,0.00
2023-12-18T00:39:47.690Z,0.00
2023-12-18T00:40:47.679Z,0.00
2023-12-18T00:41:47.658Z,0.00
2023-12-18T00:42:47.636Z,0.00
2023-12-18T00:43:49.034Z,0.00
2023-12-18T00:44:47.653Z,0.00
2023-12-18T00:45:47.640Z,0.00
2023-12-18T00:46:47.634Z,0.00
2023-12-18T00:47:47.656Z,0.00
2023-12-18T00:48:47.708Z,0.00
2023-12-18T00:49:47.779Z,0.00
2023-12-18T00:50:47.607Z,0.00
2023-12-18T00:51:47.587Z,0.00
2023-12-18T00:52:47.599Z,0.00
2023-12-18T00:53:47.577Z,0.00
2023-12-18T00:54:47.601Z,0.00
2023-12-18T00:55:47.670Z,0.00
2023-12-18T00:56:47.559Z,0.00
2023-12-18T00:57:50.440Z,0.00
2023-12-18T00:58:48.529Z,0.00
2023-12-18T00:59:47.526Z,0.00
2023-12-18T01:00:47.620Z,0.00
2023-12-18T01:01:47.534Z,0.00
2023-12-18T01:02:47.514Z,0.00
2023-12-18T01:03:47.615Z,0.00
2023-12-18T01:04:47.534Z,0.00
2023-12-18T01:05:47.496Z,0.00
2023-12-18T01:06:47.558Z,0.00
2023-12-18T01:07:47.465Z,0.00
2023-12-18T01:08:47.466Z,0.00
2023-12-18T01:09:47.466Z,0.00
2023-12-18T01:10:47.464Z,0.00
2023-12-18T01:11:47.458Z,0.00
2023-12-18T01:12:47.489Z,0.00
2023-12-18T01:13:47.434Z,0.00
2023-12-18T01:14:47.433Z,0.00
2023-12-18T01:15:47.657Z,0.00
2023-12-18T01:16:47.423Z,0.00
2023-12-18T01:17:47.722Z,0.00
2023-12-18T01:18:47.797Z,0.00
2023-12-18T01:19:47.507Z,0.00
2023-12-18T01:20:47.385Z,0.00
2023-12-18T01:21:47.405Z,0.00
2023-12-18T01:22:58.807Z,0.00
2023-12-18T01:23:48.413Z,0.00
2023-12-18T01:24:47.367Z,0.00
2023-12-18T01:25:47.356Z,0.00
2023-12-18T01:26:47.391Z,0.00
2023-12-18T01:27:47.434Z,0.00
2023-12-18T01:28:47.332Z,0.00
2023-12-18T01:29:47.337Z,0.00
2023-12-18T01:30:47.397Z,0.00
2023-12-18T01:31:47.322Z,0.00
2023-12-18T01:32:47.507Z,0.00
2023-12-18T01:33:47.686Z,0.00
2023-12-18T01:34:47.295Z,0.00
2023-12-18T01:35:47.288Z,0.00
2023-12-18T01:36:47.301Z,0.00
2023-12-18T01:37:47.287Z,0.00
2023-12-18T01:38:47.469Z,0.00
2023-12-18T01:39:47.327Z,0.00
2023-12-18T01:40:47.246Z,0.00
2023-12-18T01:41:47.256Z,0.00
2023-12-18T01:42:47.385Z,0.00
2023-12-18T01:43:47.284Z,0.00
2023-12-18T01:44:47.232Z,0.00
2023-12-18T01:45:47.258Z,0.00
2023-12-18T01:46:47.236Z,0.00
2023-12-18T01:47:47.601Z,0.00
2023-12-18T01:48:47.461Z,0.00
2023-12-18T01:49:47.288Z,0.00
2023-12-18T01:50:47.212Z,0.00
2023-12-18T01:51:47.206Z,0.00
2023-12-18T01:52:47.185Z,0.00
2023-12-18T01:53:47.178Z,0.00
2023-12-18T01:54:47.195Z,0.00
2023-12-18T01:55:47.196Z,0.00
2023-12-18T01:56:47.151Z,0.00
2023-12-18T01:57:47.266Z,0.00
2023-12-18T01:58:47.161Z,0.00
2023-12-18T01:59:47.184Z,0.00
2023-12-18T02:00:47.347Z,0.00
2023-12-18T02:01:47.128Z,0.00
2023-12-18T02:02:47.124Z,0.00
2023-12-18T02:03:47.196Z,0.00
2023-12-18T02:04:47.121Z,0.00
2023-12-18T02:05:47.110Z,0.00
2023-12-18T02:06:47.233Z,0.00
2023-12-18T02:07:47.073Z,0.00
2023-12-18T02:08:47.084Z,0.00
2023-12-18T02:09:47.088Z,0.00
2023-12-18T02:10:47.283Z,0.00
2023-12-18T02:11:47.105Z,0.00
2023-12-18T02:12:47.122Z,0.00
2023-12-18T02:13:47.039Z,0.00
2023-12-18T02:14:47.042Z,0.00
2023-12-18T02:15:47.765Z,0.00
2023-12-18T02:16:47.014Z,0.00
2023-12-18T02:17:47.056Z,0.00
2023-12-18T02:18:47.182Z,0.00
2023-12-18T02:19:47.021Z,0.00
2023-12-18T02:20:47.006Z,0.00
2023-12-18T02:21:46.990Z,0.00
2023-12-18T02:22:47.030Z,0.00
2023-12-18T02:23:46.974Z,0.00
2023-12-18T02:24:46.997Z,0.00
2023-12-18T02:25:47.017Z,0.00
2023-12-18T02:26:46.960Z,0.00
2023-12-18T02:27:47.262Z,0.00
2023-12-18T02:28:47.821Z,0.00
2023-12-18T02:29:47.061Z,0.00
2023-12-18T02:30:47.039Z,0.00
2023-12-18T02:31:46.946Z,0.00
2023-12-18T02:32:46.985Z,0.00
2023-12-18T02:33:47.047Z,0.00
2023-12-18T02:34:46.998Z,0.00
2023-12-18T02:35:46.906Z,0.00
2023-12-18T02:36:46.977Z,0.00
2023-12-18T02:37:46.931Z,0.00
2023-12-18T02:38:46.902Z,0.00
2023-12-18T02:39:46.904Z,0.00
2023-12-18T02:40:46.937Z,0.00
2023-12-18T02:41:46.932Z,0.00
2023-12-18T02:42:46.861Z,0.00
2023-12-18T02:43:46.836Z,0.00
2023-12-18T02:44:46.836Z,0.00
2023-12-18T02:45:46.869Z,0.00
2023-12-18T02:46:46.807Z,0.00
2023-12-18T02:47:47.144Z,0.00
2023-12-18T02:48:46.966Z,0.00
2023-12-18T02:49:46.848Z,0.00
2023-12-18T02:50:46.896Z,0.00
2023-12-18T02:51:46.824Z,0.00
2023-12-18T02:52:46.774Z,0.00
2023-12-18T02:53:46.766Z,0.00
2023-12-18T02:54:46.759Z,0.00
2023-12-18T02:55:47.972Z,0.00
2023-12-18T02:56:46.745Z,0.00
2023-12-18T02:57:47.223Z,0.00
2023-12-18T02:58:46.730Z,0.00
2023-12-18T02:59:46.722Z,0.00
2023-12-18T03:00:46.826Z,0.00
2023-12-18T03:01:46.704Z,0.00
2023-12-18T03:02:46.805Z,0.00
2023-12-18T03:03:47.052Z,0.00
2023-12-18T03:04:46.683Z,0.00
2023-12-18T03:05:47.336Z,0.00
2023-12-18T03:06:46.675Z,0.00
2023-12-18T03:07:46.685Z,0.00
2023-12-18T03:08:46.667Z,0.00
2023-12-18T03:09:46.702Z,0.00
2023-12-18T03:10:46.698Z,0.00
2023-12-18T03:11:46.671Z,0.00
2023-12-18T03:12:46.676Z,0.00
2023-12-18T03:13:47.030Z,0.00
2023-12-18T03:14:46.630Z,0.00
2023-12-18T03:15:46.858Z,0.00
2023-12-18T03:16:46.605Z,0.00
2023-12-18T03:17:47.196Z,0.00
2023-12-18T03:18:46.701Z,0.00
2023-12-18T03:19:46.714Z,0.00
2023-12-18T03:20:46.604Z,0.00
2023-12-18T03:21:46.617Z,0.00
2023-12-18T03:22:46.554Z,0.00
2023-12-18T03:23:46.565Z,0.00
2023-12-18T03:24:46.576Z,0.00
2023-12-18T03:25:46.574Z,0.00
2023-12-18T03:26:46.534Z,0.00
2023-12-18T03:27:46.580Z,0.00
2023-12-18T03:28:46.525Z,0.00
2023-12-18T03:29:46.520Z,0.00
2023-12-18T03:30:46.667Z,0.00
2023-12-18T03:31:46.530Z,0.00
2023-12-18T03:32:46.526Z,0.00
2023-12-18T03:33:46.598Z,0.00
2023-12-18T03:34:46.535Z,0.00
2023-12-18T03:35:46.539Z,0.00
2023-12-18T03:36:46.493Z,0.00
2023-12-18T03:37:46.462Z,0.00
2023-12-18T03:38:46.454Z,0.00
2023-12-18T03:39:46.476Z,0.00
2023-12-18T03:40:46.499Z,0.00
2023-12-18T03:41:46.456Z,0.00
2023-12-18T03:42:46.450Z,0.00
2023-12-18T03:43:46.425Z,0.00
2023-12-18T03:44:46.426Z,0.00
2023-12-18T03:45:46.490Z,0.00
2023-12-18T03:46:46.409Z,0.00
2023-12-18T03:47:46.637Z,0.00
2023-12-18T03:48:46.636Z,0.00
2023-12-18T03:49:46.455Z,0.00
2023-12-18T03:50:46.439Z,0.00
2023-12-18T03:51:46.513Z,0.00
2023-12-18T03:52:46.576Z,0.00
2023-12-18T03:53:46.573Z,0.00
2023-12-18T03:54:46.685Z,0.00
2023-12-18T03:55:46.641Z,0.00
2023-12-18T03:56:46.333Z,0.00
2023-12-18T03:57:46.897Z,0.00
2023-12-18T03:58:46.375Z,0.00
2023-12-18T03:59:46.327Z,0.00
2023-12-18T04:00:46.426Z,0.00
2023-12-18T04:01:46.301Z,0.00
2023-12-18T04:02:46.300Z,0.00
2023-12-18T04:03:46.388Z,0.00
2023-12-18T04:04:46.608Z,0.00
2023-12-18T04:05:46.401Z,0.00
2023-12-18T04:06:46.311Z,0.00
2023-12-18T04:07:46.290Z,0.00
2023-12-18T04:08:46.267Z,0.00
2023-12-18T04:09:46.313Z,0.00
2023-12-18T04:10:46.298Z,0.00
2023-12-18T04:11:46.240Z,0.00
2023-12-18T04:12:46.958Z,0.00
2023-12-18T04:13:46.232Z,0.00
2023-12-18T04:14:46.234Z,0.00
2023-12-18T04:15:46.244Z,0.00
2023-12-18T04:16:46.210Z,0.00
2023-12-18T04:17:46.579Z,0.00
2023-12-18T04:18:46.440Z,0.00
2023-12-18T04:19:46.234Z,0.00
2023-12-18T04:20:46.210Z,0.00
2023-12-18T04:21:46.223Z,0.00
2023-12-18T04:22:46.191Z,0.00
2023-12-18T04:23:46.187Z,0.00
2023-12-18T04:24:46.176Z,0.00
2023-12-18T04:25:46.173Z,0.00
2023-12-18T04:26:46.164Z,0.00
2023-12-18T04:27:46.515Z,0.00
2023-12-18T04:28:46.132Z,0.00
2023-12-18T04:29:46.116Z,0.00
2023-12-18T04:30:46.198Z,0.00
2023-12-18T04:31:46.441Z,0.00
2023-12-18T04:32:46.119Z,0.00
2023-12-18T04:33:46.185Z,0.00
2023-12-18T04:34:46.199Z,0.00
2023-12-18T04:35:46.128Z,0.00
2023-12-18T04:36:46.265Z,0.00
2023-12-18T04:37:46.492Z,0.00
2023-12-18T04:38:46.053Z,0.00
2023-12-18T04:39:46.132Z,0.00
2023-12-18T04:40:46.044Z,0.00
2023-12-18T04:41:46.096Z,0.00
2023-12-18T04:42:46.389Z,0.00
2023-12-18T04:43:46.020Z,0.00
2023-12-18T04:44:46.025Z,0.00
2023-12-18T04:45:46.095Z,0.00
2023-12-18T04:46:46.005Z,0.00
2023-12-18T04:47:46.300Z,0.00
2023-12-18T04:48:46.067Z,0.00
2023-12-18T04:49:46.111Z,0.00
2023-12-18T04:50:45.974Z,0.00
2023-12-18T04:51:46.054Z,0.00
2023-12-18T04:52:46.366Z,0.00
2023-12-18T04:53:46.021Z,0.00
2023-12-18T04:54:45.995Z,0.00
2023-12-18T04:55:45.971Z,0.00
2023-12-18T04:56:45.928Z,0.00
2023-12-18T04:57:46.009Z,0.00
2023-12-18T04:58:46.030Z,0.00
2023-12-18T04:59:45.932Z,0.00
2023-12-18T05:00:46.292Z,0.00
2023-12-18T05:01:45.899Z,0.00
2023-12-18T05:02:45.888Z,0.00
2023-12-18T05:03:45.999Z,0.00
2023-12-18T05:04:46.001Z,0.00
2023-12-18T05:05:45.978Z,0.00
2023-12-18T05:06:45.986Z,0.00
2023-12-18T05:07:46.091Z,0.00
2023-12-18T05:08:45.864Z,0.00
2023-12-18T05:09:48.984Z,0.00
2023-12-18T05:10:45.899Z,0.00
2023-12-18T05:11:46.850Z,0.00
2023-12-18T05:12:46.063Z,0.00
2023-12-18T05:13:45.822Z,0.00
2023-12-18T05:14:45.826Z,0.00
2023-12-18T05:15:45.910Z,0.00
2023-12-18T05:16:45.832Z,0.00
2023-12-18T05:17:45.814Z,0.00
2023-12-18T05:18:45.883Z,0.00
2023-12-18T05:19:45.888Z,0.00
2023-12-18T05:20:45.810Z,0.00
2023-12-18T05:21:45.820Z,0.00
2023-12-18T05:22:45.805Z,0.00
2023-12-18T05:23:45.767Z,0.00
2023-12-18T05:24:45.781Z,0.00
2023-12-18T05:25:45.757Z,0.00
2023-12-18T05:26:45.723Z,0.00
2023-12-18T05:27:45.856Z,0.00
2023-12-18T05:28:45.712Z,0.00
2023-12-18T05:29:45.712Z,0.00
2023-12-18T05:30:45.807Z,0.00
2023-12-18T05:31:45.722Z,0.00
2023-12-18T05:32:46.063Z,0.00
2023-12-18T05:33:45.836Z,0.00
2023-12-18T05:34:45.776Z,0.00
2023-12-18T05:35:45.688Z,0.00
2023-12-18T05:36:45.710Z,0.00
2023-12-18T05:37:45.664Z,0.00
2023-12-18T05:38:45.642Z,0.00
2023-12-18T05:39:45.701Z,0.00
2023-12-18T05:40:45.630Z,0.00
2023-12-18T05:41:45.677Z,0.00
2023-12-18T05:42:46.037Z,0.00
2023-12-18T05:43:45.646Z,0.00
2023-12-18T05:44:45.632Z,0.00
2023-12-18T05:45:45.741Z,0.00
2023-12-18T05:46:45.586Z,0.00
2023-12-18T05:47:45.659Z,0.00
2023-12-18T05:48:45.687Z,0.00
2023-12-18T05:49:45.666Z,0.00
2023-12-18T05:50:45.581Z,0.00
2023-12-18T05:51:45.556Z,0.00
2023-12-18T05:52:45.575Z,0.00
2023-12-18T05:53:45.566Z,0.00
2023-12-18T05:54:45.568Z,0.00
2023-12-18T05:55:45.552Z,0.00
2023-12-18T05:56:45.534Z,0.00
2023-12-18T05:57:45.550Z,0.00
2023-12-18T05:58:45.500Z,0.00
2023-12-18T05:59:45.520Z,0.00
2023-12-18T06:00:45.624Z,0.00
2023-12-18T06:01:45.487Z,0.00
2023-12-18T06:02:45.894Z,0.00
2023-12-18T06:03:45.569Z,0.00
2023-12-18T06:04:45.484Z,0.00
2023-12-18T06:05:45.503Z,0.00
2023-12-18T06:06:45.588Z,0.00
2023-12-18T06:07:45.460Z,0.00
2023-12-18T06:08:45.424Z,0.00
2023-12-18T06:09:45.545Z,0.00
2023-12-18T06:10:45.440Z,0.00
2023-12-18T06:11:45.407Z,0.00
2023-12-18T06:12:45.753Z,0.00
2023-12-18T06:13:45.415Z,0.00
2023-12-18T06:14:45.417Z,0.00
2023-12-18T06:15:45.453Z,0.00
2023-12-18T06:16:45.372Z,0.00
2023-12-18T06:17:45.493Z,0.00
2023-12-18T06:18:45.504Z,0.00
2023-12-18T06:19:45.547Z,0.00
2023-12-18T06:20:45.421Z,0.00
2023-12-18T06:21:45.377Z,0.00
2023-12-18T06:22:45.567Z,0.00
2023-12-18T06:23:45.325Z,0.00
2023-12-18T06:24:45.342Z,0.00
2023-12-18T06:25:45.334Z,0.00
2023-12-18T06:26:45.325Z,0.00
2023-12-18T06:27:45.327Z,0.00
2023-12-18T06:28:45.354Z,0.00
2023-12-18T06:29:45.279Z,0.00
2023-12-18T06:30:45.335Z,0.00
2023-12-18T06:31:45.443Z,0.00
2023-12-18T06:32:45.578Z,0.00
2023-12-18T06:33:45.342Z,0.00
2023-12-18T06:34:45.430Z,0.00
2023-12-18T06:35:45.280Z,0.00
2023-12-18T06:36:45.421Z,0.00
2023-12-18T06:37:45.897Z,0.00
2023-12-18T06:38:45.216Z,0.00
2023-12-18T06:39:45.310Z,0.00
2023-12-18T06:40:45.202Z,0.00
2023-12-18T06:41:45.220Z,0.00
2023-12-18T06:42:45.581Z,0.00
2023-12-18T06:43:45.199Z,0.00
2023-12-18T06:44:45.169Z,0.00
2023-12-18T06:45:45.241Z,0.00
2023-12-18T06:46:45.163Z,0.00
2023-12-18T06:47:45.237Z,0.00
2023-12-18T06:48:45.290Z,0.00
2023-12-18T06:49:45.195Z,0.00
2023-12-18T06:50:45.133Z,0.00
2023-12-18T06:51:45.190Z,0.00
2023-12-18T06:52:45.167Z,0.00
2023-12-18T06:53:45.125Z,0.00
2023-12-18T06:54:45.204Z,0.00
2023-12-18T06:55:45.113Z,0.00
2023-12-18T06:56:45.115Z,0.00
2023-12-18T06:57:45.188Z,0.00
2023-12-18T06:58:45.097Z,0.00
2023-12-18T06:59:45.086Z,0.00
2023-12-18T07:00:45.204Z,0.00
2023-12-18T07:01:45.156Z,0.00
2023-12-18T07:02:45.187Z,0.00
2023-12-18T07:03:45.205Z,0.00
2023-12-18T07:04:45.084Z,0.00
2023-12-18T07:05:45.016Z,0.00
2023-12-18T07:06:45.055Z,0.00
2023-12-18T07:07:45.006Z,0.00
2023-12-18T07:08:44.998Z,0.00
2023-12-18T07:09:45.130Z,0.00
2023-12-18T07:10:44.987Z,0.00
2023-12-18T07:11:45.038Z,0.00
2023-12-18T07:12:45.249Z,0.00
2023-12-18T07:13:44.974Z,0.00
2023-12-18T07:14:44.996Z,0.00
2023-12-18T07:15:44.989Z,0.00
2023-12-18T07:16:44.958Z,0.00
2023-12-18T07:17:45.004Z,0.00
2023-12-18T07:18:45.118Z,0.00
2023-12-18T07:19:44.988Z,0.00
2023-12-18T07:20:44.912Z,0.00
2023-12-18T07:21:45.003Z,0.00
2023-12-18T07:22:45.199Z,5.62
2023-12-18T07:23:44.910Z,5.62
2023-12-18T07:24:44.959Z,5.62
2023-12-18T07:25:44.884Z,5.62
2023-12-18T07:26:44.916Z,5.62
2023-12-18T07:27:44.877Z,5.62
2023-12-18T07:28:44.874Z,5.62
2023-12-18T07:29:44.944Z,5.62
2023-12-18T07:30:44.942Z,5.62
2023-12-18T07:31:44.879Z,5.62
2023-12-18T07:32:45.130Z,5.62
2023-12-18T07:33:44.953Z,5.62
2023-12-18T07:34:44.990Z,5.62
2023-12-18T07:35:44.863Z,5.62
2023-12-18T07:36:44.886Z,5.62
2023-12-18T07:37:44.792Z,5.62
2023-12-18T07:38:46.342Z,5.62
2023-12-18T07:39:44.906Z,5.62
2023-12-18T07:40:44.773Z,5.62
2023-12-18T07:41:44.760Z,11.25
2023-12-18T07:42:45.230Z,11.25
2023-12-18T07:43:44.758Z,11.25
2023-12-18T07:44:44.767Z,11.25
2023-12-18T07:45:44.823Z,11.25
2023-12-18T07:46:44.732Z,11.25
2023-12-18T07:47:44.801Z,11.25
2023-12-18T07:48:44.813Z,11.25
2023-12-18T07:49:48.181Z,11.25
2023-12-18T07:50:45.704Z,11.25
2023-12-18T07:51:44.813Z,11.25
2023-12-18T07:52:44.882Z,11.25
2023-12-18T07:53:44.679Z,11.25
2023-12-18T07:54:45.008Z,11.25
2023-12-18T07:55:44.697Z,11.25
2023-12-18T07:56:44.661Z,11.25
2023-12-18T07:57:44.683Z,11.25
2023-12-18T07:58:44.657Z,16.88
2023-12-18T07:59:44.961Z,16.88
2023-12-18T08:00:44.701Z,11.25
2023-12-18T08:01:44.947Z,16.88
2023-12-18T08:02:44.849Z,16.88
2023-12-18T08:03:44.674Z,22.50
2023-12-18T08:04:44.664Z,22.50
2023-12-18T08:05:44.633Z,22.50
2023-12-18T08:06:44.769Z,22.50
2023-12-18T08:07:44.601Z,22.50
2023-12-18T08:08:44.586Z,28.12
2023-12-18T08:09:44.613Z,28.12
2023-12-18T08:10:44.558Z,33.75
2023-12-18T08:11:44.553Z,33.75
2023-12-18T08:12:44.846Z,39.38
2023-12-18T08:13:44.566Z,39.38
2023-12-18T08:14:44.543Z,45.00
2023-12-18T08:15:44.568Z,50.62
2023-12-18T08:16:44.514Z,61.88
2023-12-18T08:17:44.557Z,67.50
2023-12-18T08:18:44.607Z,56.25
2023-12-18T08:19:44.567Z,67.50
2023-12-18T08:20:44.482Z,61.88
2023-12-18T08:21:44.535Z,56.25
2023-12-18T08:22:44.776Z,61.88
2023-12-18T08:23:44.485Z,56.25
2023-12-18T08:24:44.589Z,56.25
2023-12-18T08:25:44.456Z,45.00
2023-12-18T08:26:44.441Z,56.25
2023-12-18T08:27:44.510Z,67.50
2023-12-18T08:28:44.455Z,61.88
2023-12-18T08:29:44.444Z,50.62
2023-12-18T08:30:44.540Z,61.88
2023-12-18T08:31:44.469Z,78.75
2023-12-18T08:32:44.676Z,73.12
2023-12-18T08:33:44.509Z,73.12
2023-12-18T08:34:44.465Z,61.88
2023-12-18T08:35:44.387Z,73.12
2023-12-18T08:36:44.416Z,73.12
2023-12-18T08:37:44.411Z,67.50
2023-12-18T08:38:44.372Z,78.75
2023-12-18T08:39:44.438Z,78.75
2023-12-18T08:40:44.344Z,95.62
2023-12-18T08:41:44.347Z,95.62
2023-12-18T08:42:44.707Z,106.88
2023-12-18T08:43:46.895Z,90.00
2023-12-18T08:44:45.315Z,112.50
2023-12-18T08:45:44.368Z,129.38
2023-12-18T08:46:44.309Z,118.12
2023-12-18T08:47:44.466Z,95.62
2023-12-18T08:48:44.464Z,118.12
2023-12-18T08:49:44.291Z,106.88
2023-12-18T08:50:44.296Z,140.62
2023-12-18T08:51:44.335Z,112.50
2023-12-18T08:52:44.493Z,95.62
2023-12-18T08:53:44.276Z,84.38
2023-12-18T08:54:44.269Z,90.00
2023-12-18T08:55:44.270Z,118.12
2023-12-18T08:56:44.233Z,123.75
2023-12-18T08:57:44.309Z,118.12
2023-12-18T08:58:44.261Z,118.12
2023-12-18T08:59:44.214Z,303.75
2023-12-18T09:00:44.383Z,135.00
2023-12-18T09:01:44.231Z,112.50
2023-12-18T09:02:44.432Z,118.12
2023-12-18T09:03:44.245Z,95.62
2023-12-18T09:04:44.228Z,101.25
2023-12-18T09:05:44.370Z,90.00
2023-12-18T09:06:44.256Z,90.00
2023-12-18T09:07:44.183Z,101.25
2023-12-18T09:08:44.149Z,90.00
2023-12-18T09:09:44.314Z,95.62
2023-12-18T09:10:44.122Z,84.38
2023-12-18T09:11:44.205Z,90.00
2023-12-18T09:12:44.431Z,84.38
2023-12-18T09:13:44.114Z,90.00
2023-12-18T09:14:44.125Z,84.38
2023-12-18T09:15:44.110Z,90.00
2023-12-18T09:16:44.093Z,90.00
2023-12-18T09:17:44.112Z,90.00
2023-12-18T09:18:44.168Z,118.12
2023-12-18T09:19:44.156Z,90.00
2023-12-18T09:20:44.092Z,73.12
2023-12-18T09:21:44.095Z,78.75
2023-12-18T09:22:44.268Z,78.75
2023-12-18T09:23:44.046Z,90.00
2023-12-18T09:24:44.122Z,123.75
2023-12-18T09:25:44.029Z,151.88
2023-12-18T09:26:44.022Z,129.38
2023-12-18T09:27:44.073Z,146.25
2023-12-18T09:28:44.054Z,135.00
2023-12-18T09:29:44.025Z,106.88
2023-12-18T09:30:44.653Z,135.00
2023-12-18T09:31:44.062Z,118.12
2023-12-18T09:32:44.381Z,129.38
2023-12-18T09:33:44.168Z,112.50
2023-12-18T09:34:44.199Z,101.25
2023-12-18T09:35:43.956Z,118.12
2023-12-18T09:36:44.022Z,129.38
2023-12-18T09:37:43.945Z,129.38
2023-12-18T09:38:43.928Z,129.38
2023-12-18T09:39:43.996Z,135.00
2023-12-18T09:40:43.921Z,135.00
2023-12-18T09:41:43.913Z,135.00
2023-12-18T09:42:44.121Z,151.88
2023-12-18T09:43:43.946Z,135.00
2023-12-18T09:44:43.919Z,135.00
2023-12-18T09:45:43.935Z,135.00
2023-12-18T09:46:43.896Z,151.88
2023-12-18T09:47:43.901Z,219.38
2023-12-18T09:48:43.943Z,208.12
2023-12-18T09:49:43.978Z,219.38
2023-12-18T09:50:43.866Z,180.00
2023-12-18T09:51:43.968Z,208.12
2023-12-18T09:52:44.138Z,258.75
2023-12-18T09:53:43.833Z,236.25
2023-12-18T09:54:44.029Z,168.75
2023-12-18T09:55:43.854Z,135.00
2023-12-18T09:56:43.818Z,135.00
2023-12-18T09:57:43.917Z,168.75
2023-12-18T09:58:43.802Z,264.38
2023-12-18T09:59:43.817Z,292.50
2023-12-18T10:00:43.938Z,202.50
2023-12-18T10:01:43.842Z,168.75
2023-12-18T10:02:44.069Z,180.00
2023-12-18T10:03:43.848Z,343.12
2023-12-18T10:04:43.814Z,247.50
2023-12-18T10:05:43.796Z,213.75
2023-12-18T10:06:43.804Z,241.88
2023-12-18T10:07:43.761Z,241.88
2023-12-18T10:08:43.731Z,208.12
2023-12-18T10:09:43.763Z,241.88
2023-12-18T10:10:43.718Z,202.50
2023-12-18T10:11:43.718Z,191.25
2023-12-18T10:12:44.229Z,258.75
2023-12-18T10:13:43.704Z,315.00
2023-12-18T10:14:43.696Z,309.38
2023-12-18T10:15:44.264Z,230.62
2023-12-18T10:16:43.722Z,174.38
2023-12-18T10:17:43.836Z,686.25
2023-12-18T10:18:43.727Z,320.62
2023-12-18T10:19:43.789Z,461.25
2023-12-18T10:20:43.665Z,180.00
2023-12-18T10:21:43.682Z,168.75
2023-12-18T10:22:43.929Z,174.38
2023-12-18T10:23:43.641Z,168.75
2023-12-18T10:24:43.692Z,168.75
2023-12-18T10:25:43.618Z,168.75
2023-12-18T10:26:43.613Z,225.00
2023-12-18T10:27:43.673Z,213.75
2023-12-18T10:28:43.606Z,191.25
2023-12-18T10:29:43.621Z,320.62
2023-12-18T10:30:43.657Z,416.25
2023-12-18T10:31:43.719Z,213.75
2023-12-18T10:32:43.847Z,202.50
2023-12-18T10:33:43.702Z,219.38
2023-12-18T10:34:43.694Z,213.75
2023-12-18T10:35:43.567Z,281.25
2023-12-18T10:36:43.626Z,286.88
2023-12-18T10:37:43.633Z,230.62
2023-12-18T10:38:43.532Z,635.62
2023-12-18T10:39:43.642Z,292.50
2023-12-18T10:40:43.526Z,466.88
2023-12-18T10:41:44.412Z,821.25
2023-12-18T10:42:43.803Z,405.00
2023-12-18T10:43:43.499Z,365.62
2023-12-18T10:44:43.505Z,292.50
2023-12-18T10:45:43.534Z,416.25
2023-12-18T10:46:43.479Z,697.50
2023-12-18T10:47:43.560Z,320.62
2023-12-18T10:48:43.573Z,264.38
2023-12-18T10:49:43.644Z,421.88
2023-12-18T10:50:43.459Z,601.88
2023-12-18T10:51:43.482Z,691.88
2023-12-18T10:52:43.609Z,461.25
2023-12-18T10:53:43.436Z,652.50
2023-12-18T10:54:43.513Z,382.50
2023-12-18T10:55:43.412Z,303.75
2023-12-18T10:56:43.512Z,326.25
2023-12-18T10:57:43.856Z,326.25
2023-12-18T10:58:43.393Z,315.00
2023-12-18T10:59:43.408Z,427.50
2023-12-18T11:00:43.437Z,753.75
2023-12-18T11:01:43.427Z,793.12
2023-12-18T11:02:43.376Z,787.50
2023-12-18T11:03:43.456Z,855.00
2023-12-18T11:04:43.410Z,804.38
2023-12-18T11:05:43.413Z,855.00
2023-12-18T11:06:43.381Z,804.38
2023-12-18T11:07:43.574Z,720.00
2023-12-18T11:08:43.365Z,765.00
2023-12-18T11:09:43.400Z,765.00
2023-12-18T11:10:43.509Z,821.25
2023-12-18T11:11:43.305Z,826.88
2023-12-18T11:12:43.354Z,849.38
2023-12-18T11:13:43.284Z,832.50
2023-12-18T11:14:43.315Z,866.25
2023-12-18T11:15:43.301Z,815.62
2023-12-18T11:16:43.340Z,798.75
2023-12-18T11:17:43.666Z,770.62
2023-12-18T11:18:43.353Z,798.75
2023-12-18T11:19:43.364Z,748.12
2023-12-18T11:20:43.657Z,787.50
2023-12-18T11:21:43.261Z,759.38
2023-12-18T11:22:43.291Z,759.38
2023-12-18T11:23:43.219Z,810.00
2023-12-18T11:24:43.240Z,866.25
2023-12-18T11:25:43.223Z,866.25
2023-12-18T11:26:43.201Z,855.00
2023-12-18T11:27:43.488Z,888.75
2023-12-18T11:28:43.198Z,888.75
2023-12-18T11:29:43.241Z,922.50
2023-12-18T11:30:43.251Z,945.00
2023-12-18T11:31:43.226Z,967.50
2023-12-18T11:32:43.488Z,973.12
2023-12-18T11:33:48.833Z,978.75
2023-12-18T11:34:44.235Z,990.00
2023-12-18T11:35:43.163Z,984.38
2023-12-18T11:36:43.191Z,961.88
2023-12-18T11:37:43.122Z,933.75
2023-12-18T11:38:43.157Z,967.50
2023-12-18T11:39:43.232Z,1006.88
2023-12-18T11:40:43.191Z,1068.75
2023-12-18T11:41:43.101Z,1051.88
2023-12-18T11:42:43.329Z,1035.00
2023-12-18T11:43:43.088Z,995.62
2023-12-18T11:44:43.111Z,1012.50
2023-12-18T11:45:43.129Z,1057.50
2023-12-18T11:46:43.068Z,1040.62
2023-12-18T11:47:43.066Z,1035.00
2023-12-18T11:48:43.176Z,995.62
2023-12-18T11:49:43.286Z,663.75
2023-12-18T11:50:43.075Z,1012.50
2023-12-18T11:51:43.102Z,1018.12
2023-12-18T11:52:43.237Z,776.25
2023-12-18T11:53:43.012Z,990.00
2023-12-18T11:54:43.049Z,961.88
2023-12-18T11:55:44.640Z,230.62
2023-12-18T11:56:42.983Z,967.50
2023-12-18T11:57:42.996Z,990.00
2023-12-18T11:58:43.120Z,945.00
2023-12-18T11:59:42.971Z,967.50
2023-12-18T12:00:43.189Z,933.75
2023-12-18T12:01:43.004Z,871.88
2023-12-18T12:02:43.257Z,900.00
2023-12-18T12:03:43.154Z,911.25
2023-12-18T12:04:43.069Z,922.50
2023-12-18T12:05:42.972Z,264.38
2023-12-18T12:06:42.964Z,793.12
2023-12-18T12:07:43.160Z,826.88
2023-12-18T12:08:42.914Z,810.00
2023-12-18T12:09:42.930Z,810.00
2023-12-18T12:10:42.921Z,753.75
2023-12-18T12:11:42.917Z,742.50
2023-12-18T12:12:43.141Z,697.50
2023-12-18T12:13:42.922Z,646.88
2023-12-18T12:14:42.959Z,630.00
2023-12-18T12:15:42.907Z,641.25
2023-12-18T12:16:42.889Z,641.25
2023-12-18T12:17:43.240Z,646.88
2023-12-18T12:18:42.919Z,646.88
2023-12-18T12:19:42.906Z,573.75
2023-12-18T12:20:42.829Z,658.12
2023-12-18T12:21:47.596Z,669.38
2023-12-18T12:22:44.103Z,641.25
2023-12-18T12:23:42.861Z,658.12
2023-12-18T12:24:42.831Z,680.62
2023-12-18T12:25:42.800Z,697.50
2023-12-18T12:26:42.796Z,714.38
2023-12-18T12:27:43.061Z,748.12
2023-12-18T12:28:42.809Z,832.50
2023-12-18T12:29:44.225Z,911.25
2023-12-18T12:30:42.858Z,922.50
2023-12-18T12:31:42.979Z,843.75
2023-12-18T12:32:42.797Z,765.00
2023-12-18T12:33:42.927Z,776.25
2023-12-18T12:34:42.881Z,781.88
2023-12-18T12:35:42.730Z,748.12
2023-12-18T12:36:42.763Z,703.12
2023-12-18T12:37:43.123Z,675.00
2023-12-18T12:38:42.721Z,675.00
2023-12-18T12:39:42.745Z,663.75
2023-12-18T12:40:42.710Z,618.75
2023-12-18T12:41:42.703Z,590.62
2023-12-18T12:42:42.802Z,579.38
2023-12-18T12:43:42.684Z,568.12
2023-12-18T12:44:42.737Z,568.12
2023-12-18T12:45:42.729Z,573.75
2023-12-18T12:46:42.659Z,579.38
2023-12-18T12:47:42.896Z,579.38
2023-12-18T12:48:42.767Z,590.62
2023-12-18T12:49:42.729Z,607.50
2023-12-18T12:50:42.636Z,630.00
2023-12-18T12:51:42.689Z,630.00
2023-12-18T12:52:42.662Z,624.38
2023-12-18T12:53:42.613Z,618.75
2023-12-18T12:54:42.611Z,630.00
2023-12-18T12:55:42.627Z,618.75
2023-12-18T12:56:42.591Z,607.50
2023-12-18T12:57:42.843Z,607.50
2023-12-18T12:58:42.579Z,596.25
2023-12-18T12:59:42.574Z,585.00